Time;durP1;ratioP1;P1;durP2;ratioP2;P2;SDS_P1;SDS_P2;PMS_P1;PMS_P2;Temp;Humidity;BMP_temperature;BMP_pressure;BME280_temperature;BME280_humidity;BME280_pressure;Samples;Min_cycle;Max_cycle;Signal;HPM_P1;HPM_P2
2021/03/27 00:02:19;;;;;;;40.35;28.42;;;;;;;6.91;62.02;101171.69;1704197;82;21183;-74
2021/03/27 00:05:12;;;;;;;51.40;35.17;;;;;;;6.91;62.08;101171.69;1698422;83;22345;-76
2021/03/27 00:07:49;;;;;;;;;;;;;;;6.89;62.15;101165.80;1708572;82;21221;-73
2021/03/27 00:10:24;;;;;;;51.55;34.98;;;;;;;6.86;62.20;101164.39;1697825;83;20314;-72
2021/03/27 00:13:18;;;;;;;56.25;35.08;;;;;;;6.81;62.23;101157.09;1701414;83;21644;-73
2021/03/27 00:16:12;;;;;;;50.25;32.67;;;;;;;6.79;62.29;101160.46;1697751;84;21189;-73
2021/03/27 00:18:48;;;;;;;45.90;29.95;;;;;;;6.77;62.41;101150.56;1690620;83;21840;-72
2021/03/27 00:21:24;;;;;;;44.18;31.50;;;;;;;6.74;62.73;101158.14;1697879;83;21181;-73
2021/03/27 00:24:19;;;;;;;48.78;33.50;;;;;;;6.69;62.84;101159.33;1695629;83;21223;-74
2021/03/27 00:27:00;;;;;;;45.90;31.85;;;;;;;6.65;62.89;101157.62;1703166;83;21272;-73
2021/03/27 00:29:36;;;;;;;46.53;31.77;;;;;;;6.63;62.91;101155.69;1694861;82;21284;-73
2021/03/27 00:32:09;;;;;;;48.95;31.37;;;;;;;6.62;62.99;101154.59;1689311;84;22382;-74
2021/03/27 00:34:40;;;;;;;41.23;27.60;;;;;;;6.61;63.08;101152.42;1696024;82;21142;-74
2021/03/27 00:37:14;;;;;;;43.45;30.12;;;;;;;6.58;63.14;101152.36;1697124;84;21188;-73
2021/03/27 00:40:03;;;;;;;;;;;;;;;6.54;63.16;101160.95;1697032;84;21557;-74
2021/03/27 00:42:37;;;;;;;42.75;29.52;;;;;;;6.49;63.26;101158.95;1692435;84;20302;-74
2021/03/27 00:45:22;;;;;;;43.68;30.45;;;;;;;6.44;63.55;101161.95;1701237;83;21818;-73
2021/03/27 00:48:03;;;;;;;41.33;28.20;;;;;;;6.38;63.65;101156.16;1703226;83;21208;-74
2021/03/27 00:50:41;;;;;;;39.13;26.05;;;;;;;6.34;63.81;101160.57;1686106;83;21671;-74
2021/03/27 00:53:17;;;;;;;39.23;26.97;;;;;;;6.29;63.92;101155.11;1695006;83;21204;-72
2021/03/27 00:56:06;;;;;;;42.85;27.50;;;;;;;6.25;64.08;101159.22;1687092;84;21285;-73
2021/03/27 00:58:52;;;;;;;39.25;27.30;;;;;;;6.24;64.29;101167.38;1691672;83;21755;-72
2021/03/27 01:01:20;;;;;;;40.30;27.35;;;;;;;6.25;64.45;101157.89;1671733;83;21257;-74
2021/03/27 01:04:14;;;;;;;33.40;24.53;;;;;;;6.25;64.58;101161.88;1800348;79;22678;-74
2021/03/27 01:07:04;;;;;;;37.45;25.77;;;;;;;6.18;64.66;101157.09;1782382;80;21226;-74
2021/03/27 01:09:55;;;;;;;44.95;30.70;;;;;;;6.16;64.69;101164.47;1772367;79;21349;-75
2021/03/27 01:12:40;;;;;;;49.33;31.10;;;;;;;6.20;64.70;101159.03;1800224;79;22084;-75
2021/03/27 01:15:16;;;;;;;;;;;;;;;6.17;64.75;101158.65;1780366;79;21185;-74
2021/03/27 01:17:49;;;;;;;38.73;27.82;;;;;;;6.18;64.82;101162.40;1749445;80;21369;-74
2021/03/27 01:20:31;;;;;;;44.08;26.75;;;;;;;6.16;64.85;101165.80;1773491;79;28627;-75
2021/03/27 01:22:59;;;;;;;37.85;25.60;;;;;;;6.14;64.75;101159.88;1771130;80;21193;-74
2021/03/27 01:25:32;;;;;;;34.90;25.02;;;;;;;6.16;64.69;101164.47;1763397;80;21248;-74
2021/03/27 01:28:13;;;;;;;39.03;26.73;;;;;;;6.18;64.66;101164.25;1759261;80;21729;-75
2021/03/27 01:30:53;;;;;;;40.08;26.87;;;;;;;6.20;64.62;101160.36;1787398;79;22356;-75
2021/03/27 01:33:35;;;;;;;40.83;27.10;;;;;;;6.20;64.56;101163.02;1801265;78;21227;-73
2021/03/27 01:36:23;;;;;;;35.95;24.77;;;;;;;6.21;64.50;101165.95;1777000;78;21200;-74
2021/03/27 01:39:00;;;;;;;39.45;25.52;;;;;;;6.19;64.48;101160.07;1781917;80;21674;-73
2021/03/27 01:41:53;;;;;;;38.02;25.82;;;;;;;6.18;64.51;101165.05;1800523;78;21171;-73
2021/03/27 01:44:43;;;;;;;37.58;25.30;;;;;;;6.17;64.47;101170.06;1775821;78;21205;-74
2021/03/27 01:47:22;;;;;;;31.82;22.30;;;;;;;6.15;64.50;101162.83;1770827;78;21204;-76
2021/03/27 01:50:17;;;;;;;35.85;25.45;;;;;;;6.11;64.72;101162.95;1759395;78;21227;-75
2021/03/27 01:53:13;;;;;;;41.23;28.38;;;;;;;6.04;64.87;101161.66;1809135;78;21188;-74
2021/03/27 01:56:05;;;;;;;41.53;27.22;;;;;;;6.01;64.96;101169.23;1816644;78;21239;-75
2021/03/27 01:58:38;;;;;;;27.95;20.45;;;;;;;6.01;65.03;101167.39;1772792;80;21703;-74
2021/03/27 02:01:12;;;;;;;39.45;26.60;;;;;;;6.01;65.21;101160.76;1754167;80;21188;-74
2021/03/27 02:03:54;;;;;;;37.75;25.65;;;;;;;6.03;65.32;101169.33;1782081;79;21144;-75
2021/03/27 02:06:49;;;;;;;39.45;26.82;;;;;;;6.04;65.31;101161.66;1791191;79;21234;-75
2021/03/27 02:09:40;;;;;;;38.88;27.07;;;;;;;6.03;65.27;101165.35;1790146;79;21152;-74
2021/03/27 02:12:31;;;;;;;45.15;26.50;;;;;;;6.04;65.26;101163.51;1749307;79;21624;-75
2021/03/27 02:15:16;;;;;;;39.60;28.07;;;;;;;6.03;65.22;101169.84;1779507;80;21199;-75
2021/03/27 02:17:56;;;;;;;37.35;25.37;;;;;;;6.04;65.22;101172.79;1723998;81;21136;-76
2021/03/27 02:21:12;;;;;;;38.60;26.27;;;;;;;6.05;65.09;101171.76;1767268;80;21228;-76
2021/03/27 02:24:05;;;;;;;38.73;26.68;;;;;;;6.09;65.00;101179.61;1783183;78;21171;-76
2021/03/27 02:26:54;;;;;;;38.05;26.15;;;;;;;6.15;64.93;101185.38;1776200;78;21476;-75
2021/03/27 02:30:14;;;;;;;33.95;23.92;;;;;;;6.16;64.85;101177.73;1763540;80;21180;-75
2021/03/27 02:32:53;;;;;;;40.45;25.23;;;;;;;6.19;64.78;101180.48;1751328;81;21231;-75
2021/03/27 02:35:35;;;;;;;38.02;25.75;;;;;;;6.17;64.74;101180.68;1757834;80;21290;-74
2021/03/27 02:38:31;;;;;;;35.38;25.32;;;;;;;6.17;64.69;101180.68;1755349;80;21672;-74
2021/03/27 02:41:14;;;;;;;41.05;26.45;;;;;;;6.17;64.65;101176.70;1756912;80;21848;-73
2021/03/27 02:43:59;;;;;;;37.80;24.05;;;;;;;6.19;64.55;101182.62;1757118;79;21235;-73
2021/03/27 02:46:41;;;;;;;37.15;24.20;;;;;;;6.19;64.54;101183.13;1747240;79;21188;-73
2021/03/27 02:49:39;;;;;;;36.73;24.70;;;;;;;6.22;64.48;101179.55;1760685;79;21687;-74
2021/03/27 02:52:13;;;;;;;32.53;22.85;;;;;;;6.23;64.42;101182.48;1765672;80;21239;-74
2021/03/27 02:55:14;;;;;;;36.48;23.50;;;;;;;6.28;64.33;101182.64;1762124;81;21341;-74
2021/03/27 02:57:49;;;;;;;31.83;22.27;;;;;;;6.31;64.19;101180.89;1694576;82;21258;-73
2021/03/27 03:00:58;;;;;;;35.10;22.00;;;;;;;6.35;64.02;101186.62;1693219;82;21308;-73
2021/03/27 03:03:54;;;;;;;34.25;22.95;;;;;;;6.36;63.89;101183.45;1727824;80;21203;-73
2021/03/27 03:06:42;;;;;;;30.57;21.97;;;;;;;6.37;63.79;101183.73;1751587;81;21619;-73
2021/03/27 03:09:28;;;;;;;30.68;22.30;;;;;;;6.38;63.79;101180.85;1762373;80;21779;-72
2021/03/27 03:12:26;;;;;;;33.42;23.52;;;;;;;6.37;63.86;101186.39;1755176;80;21267;-71
2021/03/27 03:15:29;;;;;;;40.20;25.37;;;;;;;6.35;63.88;101189.27;1765292;80;21172;-71
2021/03/27 03:18:34;;;;;;;36.50;25.20;;;;;;;6.34;63.95;101186.30;1778134;80;21213;-73
2021/03/27 03:21:13;;;;;;;38.78;25.88;;;;;;;6.32;64.01;101191.02;1764569;80;21145;-72
2021/03/27 03:24:23;;;;;;;39.95;28.10;;;;;;;6.31;64.08;101190.70;1743225;80;21235;-73
2021/03/27 03:27:10;;;;;;;38.13;26.42;;;;;;;6.32;64.08;101192.34;1756960;80;21180;-73
2021/03/27 03:29:49;;;;;;;43.23;28.42;;;;;;;6.31;64.10;101192.02;1755531;80;21124;-73
2021/03/27 03:32:31;;;;;;;47.93;30.43;;;;;;;6.32;64.09;101193.67;1755252;80;21084;-72
2021/03/27 03:35:19;;;;;;;;;;;;;;;6.28;64.07;101197.23;1752807;81;21584;-72
2021/03/27 03:38:06;;;;;;;61.70;36.63;;;;;;;6.20;64.09;101200.16;1746879;80;21814;-72
2021/03/27 03:40:59;;;;;;;59.08;35.55;;;;;;;6.11;64.17;101198.24;1722057;81;21190;-71
2021/03/27 03:43:39;;;;;;;58.23;35.40;;;;;;;6.08;64.24;101196.02;1753411;81;21176;-72
2021/03/27 03:46:32;;;;;;;49.10;30.20;;;;;;;6.04;64.36;101197.98;1752363;80;21196;-72
2021/03/27 03:49:31;;;;;;;45.08;29.60;;;;;;;6.01;64.54;101202.38;1744328;80;21144;-71
2021/03/27 03:52:24;;;;;;;39.92;28.10;;;;;;;5.92;64.94;101196.97;1758010;80;21361;-73
2021/03/27 03:55:14;;;;;;;37.60;25.68;;;;;;;5.82;65.45;101202.23;1748995;81;21184;-72
2021/03/27 03:57:58;;;;;;;41.00;27.48;;;;;;;5.80;65.90;101200.30;1748341;80;21129;-72
2021/03/27 04:00:44;;;;;;;43.45;28.15;;;;;;;5.81;66.01;101202.43;1788016;79;21647;-71
2021/03/27 04:03:36;;;;;;;40.60;27.58;;;;;;;5.82;66.08;101206.21;1781566;80;21163;-72
2021/03/27 04:06:12;;;;;;;40.67;26.87;;;;;;;5.85;66.13;101207.09;1730190;81;22253;-70
2021/03/27 04:09:15;;;;;;;37.78;25.60;;;;;;;5.87;66.13;101212.20;1762517;80;21612;-72
2021/03/27 04:11:58;;;;;;;42.67;27.77;;;;;;;5.82;66.33;101206.21;1744689;80;21140;-72
2021/03/27 04:14:37;;;;;;;44.27;29.07;;;;;;;5.73;66.59;101212.76;1743324;80;21639;-71
2021/03/27 04:17:14;;;;;;;39.38;25.02;;;;;;;5.68;66.70;101219.19;1756186;80;21182;-74
2021/03/27 04:19:49;;;;;;;36.33;24.52;;;;;;;5.69;66.81;101206.22;1733987;81;21842;-72
2021/03/27 04:22:27;;;;;;;40.33;26.15;;;;;;;5.67;66.97;101204.31;1743828;80;21234;-71
2021/03/27 04:25:25;;;;;;;45.10;30.88;;;;;;;5.62;67.07;101210.22;1743901;80;21191;-72
2021/03/27 04:27:58;;;;;;;43.75;30.08;;;;;;;5.58;67.12;101210.86;1752314;80;21194;-72
2021/03/27 04:30:49;;;;;;;41.25;27.35;;;;;;;5.53;67.08;101214.66;1740502;80;21096;-72
2021/03/27 04:33:48;;;;;;;41.48;28.95;;;;;;;5.49;67.07;101219.52;1741661;80;21194;-72
2021/03/27 04:36:32;;;;;;;37.90;26.85;;;;;;;5.44;67.08;101218.02;1749024;80;21168;-71
2021/03/27 04:39:27;;;;;;;41.15;28.32;;;;;;;5.41;67.06;101221.08;1709584;82;21127;-71
2021/03/27 04:42:24;;;;;;;39.33;26.85;;;;;;;5.41;67.07;101221.08;1735790;80;21231;-71
2021/03/27 04:45:29;;;;;;;42.27;28.10;;;;;;;5.38;67.20;101220.97;1735165;81;21979;-71
2021/03/27 04:48:35;;;;;;;45.90;29.72;;;;;;;5.35;67.34;101225.88;1708134;82;22254;-70
2021/03/27 04:51:44;;;;;;;46.30;29.12;;;;;;;5.34;67.46;101222.41;1729875;80;21184;-73
2021/03/27 04:54:26;;;;;;;45.38;29.07;;;;;;;5.33;67.67;101227.91;1736968;80;21192;-71
2021/03/27 04:57:44;;;;;;;43.42;29.25;;;;;;;5.28;67.76;101229.86;1749832;80;21125;-71
2021/03/27 05:00:25;;;;;;;42.05;29.00;;;;;;;5.27;67.80;101230.08;1746601;80;21568;-72
2021/03/27 05:03:17;;;;;;;48.58;32.78;;;;;;;5.25;67.79;101238.72;1745004;82;22273;-71
2021/03/27 05:06:21;;;;;;;45.75;30.08;;;;;;;5.25;67.78;101238.20;1744286;80;21680;-73
2021/03/27 05:09:16;;;;;;;44.80;28.20;;;;;;;5.28;67.74;101251.05;1715754;81;21199;-71
2021/03/27 05:11:59;;;;;;;48.02;28.98;;;;;;;5.30;67.72;101249.02;1730777;80;21161;-71
2021/03/27 05:14:56;;;;;;;46.48;29.55;;;;;;;5.33;67.75;101243.31;1742832;81;21208;-74
2021/03/27 05:17:47;;;;;;;51.85;31.30;;;;;;;5.33;67.82;101253.06;1711265;82;22696;-71
2021/03/27 05:20:38;;;;;;;54.60;31.87;;;;;;;5.33;67.84;101255.23;1687212;83;21098;-72
2021/03/27 05:23:35;;;;;;;42.95;28.20;;;;;;;5.38;67.91;101258.06;1714094;82;21420;-72
2021/03/27 05:26:45;;;;;;;46.23;30.13;;;;;;;5.48;67.96;101251.02;1763489;79;23475;-72
2021/03/27 05:29:18;;;;;;;47.88;30.72;;;;;;;5.45;67.99;101256.73;1744497;82;21236;-70
2021/03/27 05:32:20;;;;;;;41.28;27.48;;;;;;;5.52;68.04;101256.72;1755779;81;21631;-73
2021/03/27 05:34:52;;;;;;;39.05;28.05;;;;;;;5.59;67.87;101254.88;1758923;80;21147;-72
2021/03/27 05:37:40;;;;;;;39.85;27.77;;;;;;;5.71;67.75;101257.20;1795102;79;21221;-74
2021/03/27 05:40:48;;;;;;;40.52;26.37;;;;;;;5.84;67.51;101257.17;1794940;79;21187;-73
2021/03/27 05:43:30;;;;;;;34.45;24.60;;;;;;;5.98;67.22;101259.81;1797714;79;21611;-72
2021/03/27 05:46:32;;;;;;;40.07;26.30;;;;;;;6.13;66.81;101257.72;1812201;79;21811;-72
2021/03/27 05:49:37;;;;;;;36.65;23.55;;;;;;;6.25;66.32;101261.84;1804335;79;21579;-72
2021/03/27 05:52:52;;;;;;;38.98;27.62;;;;;;;6.39;65.88;101254.66;1811022;79;21186;-72
2021/03/27 05:56:08;;;;;;;39.42;26.55;;;;;;;6.52;65.33;101254.07;1790405;77;21595;-72
2021/03/27 05:58:59;;;;;;;34.35;23.25;;;;;;;6.64;64.90;101259.50;1799304;79;21163;-73
2021/03/27 06:01:52;;;;;;;34.48;23.60;;;;;;;6.77;64.48;101259.42;1787869;79;21579;-71
2021/03/27 06:05:19;;;;;;;31.50;22.80;;;;;;;6.86;63.83;101255.19;1810248;79;21503;-72
2021/03/27 06:08:38;;;;;;;36.08;24.25;;;;;;;6.95;63.52;101253.39;1797208;79;21665;-72
2021/03/27 06:11:38;;;;;;;34.85;24.65;;;;;;;7.05;62.95;101256.38;1812540;79;21136;-72
2021/03/27 06:14:39;;;;;;;33.42;23.95;;;;;;;7.15;62.78;101250.58;1806677;79;21119;-72
2021/03/27 06:17:47;;;;;;;39.27;26.42;;;;;;;7.27;62.49;101258.14;1807972;79;21167;-73
2021/03/27 06:20:55;;;;;;;37.73;26.73;;;;;;;7.39;62.13;101259.56;1798041;79;21620;-72
2021/03/27 06:23:56;;;;;;;38.75;25.80;;;;;;;7.54;61.84;101255.24;1788225;79;21131;-71
2021/03/27 06:26:59;;;;;;;38.25;24.65;;;;;;;7.67;61.33;101257.77;1743163;80;21186;-71
2021/03/27 06:30:02;;;;;;;36.80;25.75;;;;;;;7.81;60.45;101257.63;1766723;80;21091;-72
2021/03/27 06:33:10;;;;;;;35.73;25.13;;;;;;;8.01;59.86;101256.08;1842097;75;23317;-71
2021/03/27 06:36:01;;;;;;;34.38;23.22;;;;;;;8.08;59.54;101263.45;1793131;78;21175;-71
2021/03/27 06:38:59;;;;;;;36.73;23.75;;;;;;;8.20;59.36;101259.02;1840393;76;21362;-72
2021/03/27 06:42:01;;;;;;;30.62;20.05;;;;;;;8.33;58.68;101258.05;1836818;77;21125;-72
2021/03/27 06:44:55;;;;;;;30.57;21.70;;;;;;;8.43;58.39;101263.15;1852019;75;21161;-72
2021/03/27 06:47:49;;;;;;;34.83;23.30;;;;;;;8.56;57.97;101266.16;1847085;77;21174;-72
2021/03/27 06:51:02;;;;;;;32.23;21.57;;;;;;;8.69;57.31;101273.95;1847354;75;21059;-73
2021/03/27 06:53:58;;;;;;;32.30;21.30;;;;;;;8.80;56.96;101268.89;1836705;75;21369;-72
2021/03/27 06:56:40;;;;;;;28.15;20.77;;;;;;;8.92;56.70;101272.41;1825262;77;21070;-72
2021/03/27 07:00:01;;;;;;;30.23;22.02;;;;;;;9.04;56.38;101274.55;1843074;77;21126;-73
2021/03/27 07:03:22;;;;;;;31.20;21.27;;;;;;;9.22;55.61;101269.67;1836198;76;22681;-71
2021/03/27 07:06:46;;;;;;;27.25;19.73;;;;;;;9.24;55.54;101271.56;1802158;77;21154;-72
2021/03/27 07:10:01;;;;;;;27.98;20.92;;;;;;;9.28;54.85;101271.42;1841356;75;21585;-72
2021/03/27 07:13:15;;;;;;;28.10;20.40;;;;;;;9.30;54.39;101269.84;1830166;75;22477;-72
2021/03/27 07:16:10;;;;;;;33.53;21.90;;;;;;;9.37;54.72;101275.88;1834924;77;21165;-71
2021/03/27 07:18:58;;;;;;;26.57;19.07;;;;;;;9.49;54.24;101273.22;1717498;81;21250;-72
2021/03/27 07:21:41;;;;;;;31.62;22.42;;;;;;;9.60;54.10;101275.06;1718457;81;21139;-71
2021/03/27 07:25:05;;;;;;;28.47;19.32;;;;;;;9.68;53.77;101276.59;1793766;77;21810;-72
2021/03/27 07:27:58;;;;;;;30.70;21.33;;;;;;;9.79;53.72;101279.75;1848326;77;21162;-72
2021/03/27 07:30:54;;;;;;;28.83;20.45;;;;;;;9.90;53.36;101276.25;1837304;75;21066;-71
2021/03/27 07:33:55;;;;;;;27.93;20.05;;;;;;;10.03;53.15;101281.33;1850673;75;21203;-75
2021/03/27 07:36:35;;;;;;;30.57;21.73;;;;;;;10.17;52.83;101277.89;1865489;75;21659;-72
2021/03/27 07:39:25;;;;;;;30.02;20.55;;;;;;;10.27;52.07;101282.13;1819562;75;21352;-72
2021/03/27 07:42:49;;;;;;;28.60;20.12;;;;;;;10.32;51.82;101281.41;1799144;77;21265;-71
2021/03/27 07:45:42;;;;;;;27.10;19.85;;;;;;;10.34;51.38;101283.33;1778078;77;21547;-72
2021/03/27 07:48:22;;;;;;;;;;;;;;;10.37;50.90;101284.19;1820413;76;21690;-72
2021/03/27 07:51:02;;;;;;;29.60;21.33;;;;;;;10.36;51.37;101282.55;1812595;76;20230;-72
2021/03/27 07:54:02;;;;;;;29.48;19.67;;;;;;;10.46;51.21;101281.44;1823835;78;22285;-72
2021/03/27 07:56:42;;;;;;;29.00;20.43;;;;;;;10.59;51.33;101282.17;1827654;78;21652;-72
2021/03/27 07:59:49;;;;;;;29.93;21.33;;;;;;;10.80;50.65;101275.63;1832358;77;22396;-72
2021/03/27 08:02:34;;;;;;;28.52;21.17;;;;;;;10.80;50.33;101280.98;1784638;79;21163;-71
2021/03/27 08:05:58;;;;;;;32.00;21.23;;;;;;;10.88;50.00;101277.63;1765711;79;21408;-72
2021/03/27 08:08:56;;;;;;;30.70;20.12;;;;;;;10.95;50.05;101277.75;1803170;78;21180;-71
2021/03/27 08:11:48;;;;;;;30.20;22.30;;;;;;;11.11;49.37;101278.01;1796744;79;21151;-73
2021/03/27 08:14:38;;;;;;;30.43;21.27;;;;;;;11.18;49.43;101279.45;1807541;79;21622;-72
2021/03/27 08:17:37;;;;;;;27.30;20.85;;;;;;;11.29;49.27;101273.77;1790075;79;21924;-70
2021/03/27 08:20:32;;;;;;;26.37;18.85;;;;;;;11.40;48.80;101273.39;1804706;79;21355;-71
2021/03/27 08:23:35;;;;;;;28.85;20.72;;;;;;;11.46;48.12;101274.55;1801203;79;21104;-72
2021/03/27 08:26:31;;;;;;;28.00;21.40;;;;;;;11.46;48.31;101275.89;1810755;79;21112;-71
2021/03/27 08:29:58;;;;;;;29.42;20.35;;;;;;;11.50;47.98;101270.86;1795877;79;22319;-71
2021/03/27 08:33:00;;;;;;;35.58;23.45;;;;;;;11.56;47.72;101267.73;1792411;79;21598;-72
2021/03/27 08:35:52;;;;;;;34.00;23.67;;;;;;;11.65;47.63;101264.94;1794558;79;21817;-71
2021/03/27 08:38:34;;;;;;;28.62;21.97;;;;;;;11.81;47.56;101270.74;1802647;79;21756;-76
2021/03/27 08:41:30;;;;;;;30.40;20.50;;;;;;;12.01;46.94;101266.24;1804609;77;22710;-72
2021/03/27 08:44:27;;;;;;;32.13;21.17;;;;;;;12.06;46.92;101260.13;1782431;79;21422;-72
2021/03/27 08:47:08;;;;;;;33.83;23.63;;;;;;;12.19;46.91;101257.06;1787572;78;21408;-72
2021/03/27 08:50:17;;;;;;;31.27;23.32;;;;;;;12.35;46.10;101261.54;1792528;78;21441;-72
2021/03/27 08:53:30;;;;;;;27.70;20.60;;;;;;;12.47;45.72;101256.05;1788940;78;21237;-73
2021/03/27 08:56:21;;;;;;;33.42;23.85;;;;;;;12.58;45.53;101253.74;1667446;85;21455;-72
2021/03/27 08:59:00;;;;;;;31.80;23.50;;;;;;;12.71;45.17;101257.08;1669773;85;21679;-71
2021/03/27 09:01:45;;;;;;;30.17;22.53;;;;;;;12.74;44.76;101256.04;1667492;84;21486;-72
2021/03/27 09:04:49;;;;;;;29.80;21.40;;;;;;;12.79;44.29;101257.95;1607365;85;21428;-70
2021/03/27 09:07:48;;;;;;;23.37;18.30;;;;;;;12.91;43.43;101257.27;1669376;84;21494;-71
2021/03/27 09:10:37;;;;;;;31.80;21.67;;;;;;;13.03;43.33;101254.39;1656942;85;21404;-72
2021/03/27 09:13:54;;;;;;;32.63;22.80;;;;;;;13.12;42.56;101250.98;1666992;84;21468;-72
2021/03/27 09:16:43;;;;;;;32.20;22.60;;;;;;;13.17;41.96;101247.55;1657274;84;21658;-73
2021/03/27 09:19:56;;;;;;;28.53;20.20;;;;;;;13.26;42.12;101245.20;1657915;85;21385;-72
2021/03/27 09:22:49;;;;;;;29.03;21.63;;;;;;;13.44;40.99;101250.70;1663267;85;21357;-74
2021/03/27 09:25:45;;;;;;;31.97;23.87;;;;;;;13.51;40.83;101240.55;1652495;85;21336;-74
2021/03/27 09:28:53;;;;;;;28.50;21.33;;;;;;;13.51;40.26;101253.97;1667911;85;21619;-72
2021/03/27 09:31:54;;;;;;;28.10;20.53;;;;;;;13.41;38.90;101246.66;1665741;85;21514;-72
2021/03/27 09:35:17;;;;;;;27.33;20.20;;;;;;;13.22;38.76;101250.25;1668244;84;21434;-74
2021/03/27 09:38:36;;;;;;;28.47;19.03;;;;;;;13.09;39.38;101248.81;1643828;85;21706;-71
2021/03/27 09:41:38;;;;;;;21.03;16.20;;;;;;;12.97;38.13;101258.92;1657958;85;21791;-72
2021/03/27 09:44:44;;;;;;;23.90;17.30;;;;;;;12.89;37.05;101251.33;1672578;84;21378;-72
2021/03/27 09:47:50;;;;;;;20.13;14.97;;;;;;;12.91;36.50;101247.34;1669896;85;22327;-72
2021/03/27 09:53:57;;;;;;;23.83;16.90;;;;;;;13.35;36.24;101245.81;1828677;76;22841;-76
2021/03/27 09:56:36;;;;;;;21.77;16.07;;;;;;;13.41;36.27;101240.48;1834886;77;21205;-72
2021/03/27 09:59:45;;;;;;;23.20;15.73;;;;;;;13.57;36.46;101240.86;1828780;76;21285;-71
2021/03/27 10:02:34;;;;;;;23.60;15.37;;;;;;;13.68;35.09;101235.80;1834767;76;21416;-73
2021/03/27 10:05:13;;;;;;;18.57;14.20;;;;;;;13.78;34.51;101236.39;1794329;77;22551;-72
2021/03/27 10:08:14;;;;;;;26.80;17.02;;;;;;;13.87;35.00;101231.34;1661619;77;10000641;-74
2021/03/27 10:11:08;;;;;;;22.00;16.70;;;;;;;13.97;34.89;101240.23;1764391;78;22320;-75
2021/03/27 10:13:42;;;;;;;22.77;16.17;;;;;;;14.10;35.16;101243.51;1761128;80;21458;-74
2021/03/27 10:16:26;;;;;;;24.13;17.13;;;;;;;14.20;34.83;101241.66;1783196;78;21886;-74
2021/03/27 10:19:00;;;;;;;;;;;;;;;14.24;35.46;101234.67;1772500;80;21540;-73
2021/03/27 10:21:39;;;;;;;23.60;18.40;;;;;;;14.36;35.22;101238.48;1765122;78;20327;-75
2021/03/27 10:24:48;;;;;;;23.40;17.70;;;;;;;14.34;34.62;101245.19;1766064;79;21713;-74
2021/03/27 10:27:33;;;;;;;22.37;17.47;;;;;;;14.14;34.70;101239.22;1772198;79;22171;-76
2021/03/27 10:41:42;;;;;;;22.97;17.30;;;;;;;14.48;34.42;101234.22;1798860;78;22732;-75
2021/03/27 10:44:18;;;;;;;21.83;17.60;;;;;;;14.51;34.56;101237.20;1774479;79;21206;-74
2021/03/27 10:46:55;;;;;;;22.20;16.80;;;;;;;14.51;34.03;101228.31;1764872;80;22247;-73
2021/03/27 10:49:39;;;;;;;23.00;17.13;;;;;;;14.48;34.38;101227.50;1765735;79;21940;-74
2021/03/27 10:52:27;;;;;;;24.97;18.70;;;;;;;14.52;34.51;101229.95;1752720;79;21922;-74
2021/03/27 10:55:19;;;;;;;24.90;18.63;;;;;;;14.54;34.09;101215.17;1798165;79;22320;-73
2021/03/27 10:58:11;;;;;;;23.50;17.60;;;;;;;14.37;34.23;101217.78;1769240;79;21830;-76
2021/03/27 11:01:16;;;;;;;25.50;18.63;;;;;;;14.26;34.14;101215.63;1795164;79;21825;-74
2021/03/27 11:04:35;;;;;;;24.50;18.87;;;;;;;14.26;34.14;101215.63;1769555;79;21702;-74
2021/03/27 11:07:36;;;;;;;19.33;15.23;;;;;;;14.30;34.35;101224.22;1772481;79;22047;-73
2021/03/27 11:10:19;;;;;;;21.00;16.00;;;;;;;14.37;32.92;101212.41;1772988;79;21695;-76
2021/03/27 11:13:12;;;;;;;19.73;14.47;;;;;;;14.47;32.21;101213.23;1763780;79;21676;-75
2021/03/27 11:16:01;;;;;;;16.33;12.07;;;;;;;14.47;32.21;101213.23;1766860;79;21664;-77
2021/03/27 11:18:54;;;;;;;18.87;13.80;;;;;;;14.57;31.09;101213.80;1775273;79;21617;-75
2021/03/27 11:22:12;;;;;;;20.57;15.10;;;;;;;14.62;31.06;101211.14;1767408;79;21550;-74
2021/03/27 11:25:24;;;;;;;20.20;13.93;;;;;;;14.62;31.06;101211.14;1776282;79;21655;-75
2021/03/27 11:28:16;;;;;;;25.40;18.60;;;;;;;14.63;31.50;101208.70;1770126;79;21604;-75
2021/03/27 11:31:16;;;;;;;25.67;18.33;;;;;;;14.70;32.24;101214.62;1770480;79;21671;-75
2021/03/27 11:34:14;;;;;;;20.03;15.33;;;;;;;14.50;32.44;101211.38;1779451;78;21783;-74
2021/03/27 11:36:51;;;;;;;21.53;15.73;;;;;;;14.50;32.44;101211.38;1757057;78;21876;-75
2021/03/27 11:39:56;;;;;;;20.17;14.20;;;;;;;14.30;32.95;101215.35;1778464;78;21590;-71
2021/03/27 11:42:57;;;;;;;15.87;9.40;;;;;;;14.26;33.33;101213.73;1781440;79;21533;-71
2021/03/27 11:45:48;;;;;;;16.63;11.97;;;;;;;14.36;30.40;101216.18;1781295;78;21486;-70
2021/03/27 11:48:23;;;;;;;17.63;12.60;;;;;;;14.43;30.27;101210.00;1748704;79;21583;-71
2021/03/27 11:51:16;;;;;;;15.83;11.93;;;;;;;14.44;30.74;101208.92;1774088;78;21619;-70
2021/03/27 11:54:02;;;;;;;15.65;11.70;;;;;;;14.48;30.63;101208.68;1773920;79;21440;-72
2021/03/27 11:56:50;;;;;;;17.37;11.77;;;;;;;14.60;30.54;101200.38;1774083;79;21148;-72
2021/03/27 12:02:54;;;;;;;18.42;12.70;;;;;;;14.65;30.89;101192.33;1755567;79;21550;-73
2021/03/27 12:05:53;;;;;;;15.55;11.18;;;;;;;14.72;30.69;101196.89;1774415;79;21251;-74
2021/03/27 12:08:36;;;;;;;17.10;11.83;;;;;;;14.77;30.48;101197.70;1785895;79;21164;-74
2021/03/27 12:11:29;;;;;;;15.63;12.43;;;;;;;14.92;30.29;101196.08;1778870;80;21633;-74
2021/03/27 12:14:06;;;;;;;17.90;13.10;;;;;;;14.92;30.29;101196.08;1711631;79;21670;-74
2021/03/27 12:16:45;;;;;;;17.90;12.87;;;;;;;14.99;30.58;101193.91;1773512;80;21742;-72
2021/03/27 12:19:37;;;;;;;15.72;12.03;;;;;;;15.04;30.33;101179.64;1743004;79;21662;-74
2021/03/27 12:22:17;;;;;;;15.88;12.10;;;;;;;14.95;30.13;101196.89;1772374;80;21239;-73
2021/03/27 12:24:57;;;;;;;15.97;11.30;;;;;;;14.96;30.74;101193.11;1776744;78;22631;-74
2021/03/27 12:27:30;;;;;;;18.33;13.87;;;;;;;14.96;30.74;101193.11;1781961;79;21830;-72
2021/03/27 12:30:15;;;;;;;17.73;12.47;;;;;;;15.16;30.27;101189.58;1791220;79;21608;-73
2021/03/27 12:33:04;;;;;;;20.10;13.87;;;;;;;15.28;31.03;101188.77;1775783;79;21676;-72
2021/03/27 12:35:45;;;;;;;17.33;13.10;;;;;;;15.28;31.03;101188.77;1771067;79;22148;-75
2021/03/27 12:38:27;;;;;;;17.03;11.93;;;;;;;15.37;29.99;101184.98;1754426;79;22396;-73
2021/03/27 12:41:04;;;;;;;15.10;11.60;;;;;;;15.36;30.14;101194.12;1706992;82;21607;-73
2021/03/27 12:43:35;;;;;;;18.13;12.80;;;;;;;15.40;29.07;101187.93;1740967;82;21825;-72
2021/03/27 12:46:36;;;;;;;16.93;12.13;;;;;;;15.35;29.28;101187.13;1732233;82;28611;-74
2021/03/27 12:49:30;;;;;;;15.95;11.97;;;;;;;15.38;29.29;101186.59;1727518;82;21219;-74
2021/03/27 12:52:50;;;;;;;17.20;12.13;;;;;;;15.39;29.02;101188.19;1735279;82;21149;-74
2021/03/27 12:55:39;;;;;;;18.33;12.90;;;;;;;15.38;29.74;101194.12;1727981;81;21860;-77
2021/03/27 12:58:47;;;;;;;18.57;12.97;;;;;;;15.40;29.06;101183.06;1723871;81;21865;-78
2021/03/27 13:01:58;;;;;;;19.87;13.37;;;;;;;15.38;28.99;101190.08;1734669;82;21909;-78
2021/03/27 13:04:53;;;;;;;15.13;11.00;;;;;;;15.38;28.99;101190.08;1725669;82;21858;-77
2021/03/27 13:07:50;;;;;;;14.70;11.53;;;;;;;15.30;28.58;101177.70;1733481;82;21827;-72
2021/03/27 13:10:23;;;;;;;17.20;11.57;;;;;;;15.24;28.42;101182.31;1718814;82;21701;-73
2021/03/27 13:13:17;;;;;;;17.07;13.13;;;;;;;15.17;28.87;101185.84;1728572;82;22370;-72
2021/03/27 13:16:17;;;;;;;18.60;12.87;;;;;;;15.11;28.99;101175.61;1735801;81;21744;-73
2021/03/27 13:19:25;;;;;;;17.07;12.43;;;;;;;15.11;28.99;101175.61;1739548;82;22259;-69
2021/03/27 13:22:14;;;;;;;17.77;14.03;;;;;;;15.08;29.31;101172.66;1730385;82;21577;-69
2021/03/27 13:25:00;;;;;;;18.60;14.47;;;;;;;15.06;29.07;101172.12;1729507;81;21886;-70
2021/03/27 13:27:36;;;;;;;17.57;13.60;;;;;;;15.06;29.07;101172.12;1726769;82;21670;-70